PWSweather.com
Personal Weather Stations
Station Observations
QVALLEY1
Quail Valley, Overland Park, KS 66210

Quail ValleyOverland Park, KS 66210

Lat: 38.926, Lon: -94.684

Elevation: 1010

Station Type: Ambient Weather/WS 1400 IP

Latest ConditionsUpdated 1:15:42 PM CDT Sunday, May 26, 2019
Currently Today's Max Today's Min Today's Average
Temperature 76.5°F24.7°C 76.5°F24.7°C 64.0°F17.8°C 67.4°F19.7°C
Dew Point 63.8°F17.7°C 68.4°F20.2°C 62.5°F16.9°C 64.5°F18.1°C
Winds 3.6 mph SSE5.8 kmh SSE 8.3 mph -13.4 kmh - - 1.0 mph 1.6 kmh
Wind Gusts 5.8 mph9.3 kmh 15.0 mph24.1 kmh - -
Humidity 65% 99% 64% 91%
Pressure 30.09 in1019.0 mb 30.11 in1019.6 mb 29.95 in1014.2 mb -
Precipitation - 0.17 in4.3 mm - -
Hour Temp Dew Point Humidity Winds Wind Gusts Pressure Precip Precip Rate Daily Precip Total
01:15 PM 76.5°F24.7°C 63.8°F17.7°C 65% 3.6 mph SSE5.8 kmh SSE 5.8 mph9.3 kmh 30.09 in1019.0 mb 0.00 in0.0 mm 0.00 in0.0 mm 0.17 in4.3 mm
01:10 PM 76.5°F24.7°C 63.5°F17.5°C 65% 3.4 mph ESE5.5 kmh ESE 5.8 mph9.3 kmh 30.09 in1019.0 mb 0.00 in0.0 mm 0.00 in0.0 mm 0.17 in4.3 mm
01:05 PM 76.3°F24.6°C 63.3°F17.4°C 65% 0.7 mph S1.1 kmh S 2.9 mph4.7 kmh 30.09 in1019.0 mb 0.00 in0.0 mm 0.00 in0.0 mm 0.17 in4.3 mm
01:00 PM 75.9°F24.4°C 63.3°F17.4°C 65% 5.4 mph SSW8.7 kmh SSW 9.0 mph14.5 kmh 30.09 in1019.0 mb 0.00 in0.0 mm 0.00 in0.0 mm 0.17 in4.3 mm
12:55 PM 75.7°F24.3°C 63.0°F17.2°C 65% 4.0 mph SW6.4 kmh SW 5.8 mph9.3 kmh 30.09 in1019.0 mb 0.00 in0.0 mm 0.00 in0.0 mm 0.17 in4.3 mm
12:50 PM 75.7°F24.3°C 62.6°F17.0°C 64% 6.7 mph SSW10.8 kmh SSW 9.0 mph14.5 kmh 30.09 in1019.0 mb 0.00 in0.0 mm 0.00 in0.0 mm 0.17 in4.3 mm
12:45 PM 75.6°F24.2°C 62.9°F17.2°C 65% 4.7 mph SSW7.6 kmh SSW 5.8 mph9.3 kmh 30.09 in1019.0 mb 0.00 in0.0 mm 0.00 in0.0 mm 0.17 in4.3 mm
12:40 PM 75.6°F24.2°C 63.3°F17.4°C 66% 2.9 mph SSW4.7 kmh SSW 2.9 mph4.7 kmh 30.09 in1019.0 mb 0.00 in0.0 mm 0.00 in0.0 mm 0.17 in4.3 mm
12:35 PM 75.6°F24.2°C 63.3°F17.4°C 66% 1.8 mph SW2.9 kmh SW 2.9 mph4.7 kmh 30.10 in1019.3 mb 0.00 in0.0 mm 0.00 in0.0 mm 0.17 in4.3 mm
12:30 PM 75.6°F24.2°C 63.1°F17.3°C 66% 3.4 mph SSW5.5 kmh SSW 5.8 mph9.3 kmh 30.10 in1019.3 mb 0.00 in0.0 mm 0.00 in0.0 mm 0.17 in4.3 mm
12:25 PM 75.6°F24.2°C 62.7°F17.1°C 65% 0.7 mph SW1.1 kmh SW 2.9 mph4.7 kmh 30.10 in1019.3 mb 0.00 in0.0 mm 0.00 in0.0 mm 0.17 in4.3 mm
12:20 PM 75.2°F24.0°C 62.5°F16.9°C 65% 3.4 mph SW5.5 kmh SW 5.8 mph9.3 kmh 30.10 in1019.3 mb 0.00 in0.0 mm 0.00 in0.0 mm 0.17 in4.3 mm
12:15 PM 74.8°F23.8°C 62.6°F17.0°C 67% 2.9 mph SSW4.7 kmh SSW 2.9 mph4.7 kmh 30.10 in1019.3 mb 0.00 in0.0 mm 0.00 in0.0 mm 0.17 in4.3 mm
12:10 PM 74.7°F23.7°C 62.6°F17.0°C 67% Calm Calm -- 30.10 in1019.3 mb 0.00 in0.0 mm 0.00 in0.0 mm 0.17 in4.3 mm
12:05 PM 74.3°F23.5°C 62.5°F16.9°C 68% 0.2 mph S0.3 kmh S 2.9 mph4.7 kmh 30.10 in1019.3 mb 0.00 in0.0 mm 0.00 in0.0 mm 0.17 in4.3 mm
12:00 PM 73.9°F23.3°C 62.7°F17.1°C 69% 4.5 mph S7.2 kmh S 5.8 mph9.3 kmh 30.09 in1019.0 mb 0.00 in0.0 mm 0.00 in0.0 mm 0.17 in4.3 mm
11:55 AM 73.8°F23.2°C 62.7°F17.1°C 69% 0.7 mph SSW1.1 kmh SSW 2.9 mph4.7 kmh 30.10 in1019.3 mb 0.00 in0.0 mm 0.00 in0.0 mm 0.17 in4.3 mm
11:50 AM 73.6°F23.1°C 62.7°F17.1°C 69% 6.3 mph SSW10.1 kmh SSW 9.0 mph14.5 kmh 30.10 in1019.3 mb 0.00 in0.0 mm 0.00 in0.0 mm 0.17 in4.3 mm
11:45 AM 73.6°F23.1°C 63.0°F17.2°C 69% 2.9 mph SW4.7 kmh SW 5.8 mph9.3 kmh 30.10 in1019.3 mb 0.00 in0.0 mm 0.00 in0.0 mm 0.17 in4.3 mm
11:40 AM 73.6°F23.1°C 62.9°F17.2°C 69% 0.2 mph SW0.3 kmh SW 2.9 mph4.7 kmh 30.11 in1019.6 mb 0.00 in0.0 mm 0.00 in0.0 mm 0.17 in4.3 mm
11:35 AM 73.4°F23.0°C 62.7°F17.1°C 69% 1.6 mph SW2.6 kmh SW 2.9 mph4.7 kmh 30.11 in1019.6 mb 0.00 in0.0 mm 0.00 in0.0 mm 0.17 in4.3 mm
11:30 AM 73.2°F22.9°C 62.8°F17.1°C 70% Calm Calm -- 30.10 in1019.3 mb 0.00 in0.0 mm 0.00 in0.0 mm 0.17 in4.3 mm
11:25 AM 73.0°F22.8°C 62.8°F17.1°C 70% 0.2 mph SSW0.3 kmh SSW 2.9 mph4.7 kmh 30.10 in1019.3 mb 0.00 in0.0 mm 0.00 in0.0 mm 0.17 in4.3 mm
11:20 AM 73.0°F22.8°C 62.7°F17.1°C 70% 8.3 mph SW13.4 kmh SW 12.1 mph19.5 kmh 30.10 in1019.3 mb 0.00 in0.0 mm 0.00 in0.0 mm 0.17 in4.3 mm
11:15 AM 72.9°F22.7°C 62.5°F16.9°C 70% 1.6 mph SW2.6 kmh SW 2.9 mph4.7 kmh 30.10 in1019.3 mb 0.00 in0.0 mm 0.00 in0.0 mm 0.17 in4.3 mm
11:10 AM 72.7°F22.6°C 62.6°F17.0°C 70% 3.4 mph SSW5.5 kmh SSW 5.8 mph9.3 kmh 30.10 in1019.3 mb 0.00 in0.0 mm 0.00 in0.0 mm 0.17 in4.3 mm
11:05 AM 72.7°F22.6°C 63.0°F17.2°C 72% 1.8 mph SSW2.9 kmh SSW 2.9 mph4.7 kmh 30.10 in1019.3 mb 0.00 in0.0 mm 0.00 in0.0 mm 0.17 in4.3 mm
11:00 AM 72.7°F22.6°C 63.3°F17.4°C 73% 2.0 mph SW3.2 kmh SW 2.9 mph4.7 kmh 30.09 in1019.0 mb 0.00 in0.0 mm 0.00 in0.0 mm 0.17 in4.3 mm
10:55 AM 72.5°F22.5°C 63.7°F17.6°C 75% Calm Calm -- 30.09 in1019.0 mb 0.00 in0.0 mm 0.00 in0.0 mm 0.17 in4.3 mm
10:50 AM 72.1°F22.3°C 63.9°F17.7°C 76% 4.0 mph SSW6.4 kmh SSW 5.8 mph9.3 kmh 30.10 in1019.3 mb 0.00 in0.0 mm 0.00 in0.0 mm 0.17 in4.3 mm
10:45 AM 71.8°F22.1°C 64.0°F17.8°C 77% 1.8 mph SSW2.9 kmh SSW 2.9 mph4.7 kmh 30.10 in1019.3 mb 0.00 in0.0 mm 0.00 in0.0 mm 0.17 in4.3 mm
10:40 AM 71.6°F22.0°C 64.2°F17.9°C 78% 1.8 mph SSW2.9 kmh SSW 2.9 mph4.7 kmh 30.10 in1019.3 mb 0.00 in0.0 mm 0.00 in0.0 mm 0.17 in4.3 mm
10:35 AM 71.4°F21.9°C 64.3°F17.9°C 79% Calm Calm -- 30.09 in1019.0 mb 0.00 in0.0 mm 0.00 in0.0 mm 0.17 in4.3 mm
10:30 AM 71.1°F21.7°C 64.4°F18.0°C 80% 0.2 mph SSW0.3 kmh SSW 2.9 mph4.7 kmh 30.10 in1019.3 mb 0.00 in0.0 mm 0.00 in0.0 mm 0.17 in4.3 mm
10:25 AM 70.9°F21.6°C 64.5°F18.1°C 81% 2.7 mph SSW4.3 kmh SSW 2.9 mph4.7 kmh 30.10 in1019.3 mb 0.00 in0.0 mm 0.00 in0.0 mm 0.17 in4.3 mm
10:20 AM 70.7°F21.5°C 64.8°F18.2°C 82% 1.6 mph SSW2.6 kmh SSW 2.9 mph4.7 kmh 30.10 in1019.3 mb 0.00 in0.0 mm 0.00 in0.0 mm 0.17 in4.3 mm
10:15 AM 70.5°F21.4°C 65.0°F18.3°C 84% 3.6 mph SSW5.8 kmh SSW 5.8 mph9.3 kmh 30.10 in1019.3 mb 0.00 in0.0 mm 0.00 in0.0 mm 0.17 in4.3 mm
10:10 AM 70.3°F21.3°C 65.2°F18.4°C 84% 1.6 mph S2.6 kmh S 2.9 mph4.7 kmh 30.10 in1019.3 mb 0.00 in0.0 mm 0.00 in0.0 mm 0.17 in4.3 mm
10:05 AM 70.2°F21.2°C 65.5°F18.6°C 86% Calm Calm -- 30.10 in1019.3 mb 0.00 in0.0 mm 0.00 in0.0 mm 0.17 in4.3 mm
10:00 AM 70.0°F21.1°C 65.7°F18.7°C 87% Calm Calm -- 30.10 in1019.3 mb 0.00 in0.0 mm 0.00 in0.0 mm 0.17 in4.3 mm
09:55 AM 69.8°F21.0°C 65.6°F18.7°C 87% Calm Calm -- 30.09 in1019.0 mb 0.00 in0.0 mm 0.00 in0.0 mm 0.17 in4.3 mm
09:50 AM 69.6°F20.9°C 65.5°F18.6°C 88% Calm Calm -- 30.09 in1019.0 mb 0.00 in0.0 mm 0.00 in0.0 mm 0.17 in4.3 mm
09:45 AM 69.3°F20.7°C 65.3°F18.5°C 89% 2.7 mph SSW4.3 kmh SSW 2.9 mph4.7 kmh 30.09 in1019.0 mb 0.00 in0.0 mm 0.00 in0.0 mm 0.17 in4.3 mm
09:40 AM 68.9°F20.5°C 65.4°F18.6°C 90% Calm Calm -- 30.09 in1019.0 mb 0.00 in0.0 mm 0.00 in0.0 mm 0.17 in4.3 mm
09:35 AM 68.5°F20.3°C 65.5°F18.6°C 91% Calm Calm -- 30.09 in1019.0 mb 0.00 in0.0 mm 0.00 in0.0 mm 0.17 in4.3 mm
09:30 AM 68.2°F20.1°C 65.4°F18.6°C 92% 0.2 mph SSW0.3 kmh SSW 2.9 mph4.7 kmh 30.09 in1019.0 mb 0.00 in0.0 mm 0.00 in0.0 mm 0.17 in4.3 mm
09:25 AM 67.8°F19.9°C 65.2°F18.4°C 93% 1.8 mph SSW2.9 kmh SSW 2.9 mph4.7 kmh 30.09 in1019.0 mb 0.00 in0.0 mm 0.00 in0.0 mm 0.17 in4.3 mm
09:20 AM 67.3°F19.6°C 65.1°F18.4°C 94% Calm Calm -- 30.09 in1019.0 mb 0.00 in0.0 mm 0.00 in0.0 mm 0.17 in4.3 mm
09:15 AM 66.9°F19.4°C 65.0°F18.3°C 95% Calm Calm -- 30.10 in1019.3 mb 0.00 in0.0 mm 0.00 in0.0 mm 0.17 in4.3 mm
09:10 AM 66.7°F19.3°C 64.8°F18.2°C 95% Calm Calm -- 30.10 in1019.3 mb 0.00 in0.0 mm 0.00 in0.0 mm 0.17 in4.3 mm
09:05 AM 66.4°F19.1°C 64.7°F18.2°C 95% 0.2 mph S0.3 kmh S 2.9 mph4.7 kmh 30.10 in1019.3 mb 0.00 in0.0 mm 0.00 in0.0 mm 0.17 in4.3 mm
09:00 AM 66.2°F19.0°C 64.7°F18.2°C 95% Calm Calm -- 30.10 in1019.3 mb 0.00 in0.0 mm 0.00 in0.0 mm 0.17 in4.3 mm
08:55 AM 66.0°F18.9°C 64.8°F18.2°C 96% Calm Calm -- 30.10 in1019.3 mb 0.00 in0.0 mm 0.00 in0.0 mm 0.17 in4.3 mm
08:50 AM 65.8°F18.8°C 64.9°F18.3°C 97% 1.6 mph S2.6 kmh S 2.9 mph4.7 kmh 30.10 in1019.3 mb 0.00 in0.0 mm 0.00 in0.0 mm 0.17 in4.3 mm
08:45 AM 65.8°F18.8°C 65.0°F18.3°C 97% Calm Calm -- 30.10 in1019.3 mb 0.00 in0.0 mm 0.00 in0.0 mm 0.17 in4.3 mm
08:40 AM 65.8°F18.8°C 65.1°F18.4°C 98% Calm Calm -- 30.10 in1019.3 mb 0.00 in0.0 mm 0.00 in0.0 mm 0.17 in4.3 mm
08:35 AM 65.7°F18.7°C 65.1°F18.4°C 98% 0.2 mph S0.3 kmh S 2.9 mph4.7 kmh 30.10 in1019.3 mb 0.00 in0.0 mm 0.00 in0.0 mm 0.17 in4.3 mm
08:30 AM 65.7°F18.7°C 65.0°F18.3°C 98% Calm Calm -- 30.09 in1019.0 mb 0.00 in0.0 mm 0.00 in0.0 mm 0.17 in4.3 mm
08:25 AM 65.7°F18.7°C 65.0°F18.3°C 98% 1.8 mph S2.9 kmh S 2.9 mph4.7 kmh 30.09 in1019.0 mb 0.00 in0.0 mm 0.00 in0.0 mm 0.17 in4.3 mm
08:20 AM 65.5°F18.6°C 65.5°F18.6°C 99% Calm Calm -- 30.09 in1019.0 mb 0.00 in0.0 mm 0.00 in0.0 mm 0.17 in4.3 mm
08:15 AM 65.5°F18.6°C 65.5°F18.6°C 99% Calm Calm -- 30.08 in1018.6 mb 0.00 in0.0 mm 0.00 in0.0 mm 0.17 in4.3 mm
08:10 AM 65.5°F18.6°C 65.5°F18.6°C 99% Calm Calm -- 30.07 in1018.3 mb 0.00 in0.0 mm 0.00 in0.0 mm 0.17 in4.3 mm
08:05 AM 65.5°F18.6°C 65.5°F18.6°C 99% Calm Calm -- 30.07 in1018.3 mb 0.00 in0.0 mm 0.00 in0.0 mm 0.17 in4.3 mm
08:00 AM 65.5°F18.6°C 65.5°F18.6°C 99% Calm Calm -- 30.07 in1018.3 mb 0.00 in0.0 mm 0.00 in0.0 mm 0.17 in4.3 mm
07:55 AM 65.5°F18.6°C 65.5°F18.6°C 99% Calm Calm -- 30.07 in1018.3 mb 0.00 in0.0 mm 0.00 in0.0 mm 0.17 in4.3 mm
07:50 AM 65.3°F18.5°C 65.3°F18.5°C 99% Calm Calm -- 30.07 in1018.3 mb 0.00 in0.0 mm 0.00 in0.0 mm 0.17 in4.3 mm
07:45 AM 65.3°F18.5°C 65.3°F18.5°C 99% Calm Calm -- 30.07 in1018.3 mb 0.00 in0.0 mm 0.00 in0.0 mm 0.17 in4.3 mm
07:40 AM 65.3°F18.5°C 65.3°F18.5°C 99% Calm Calm -- 30.07 in1018.3 mb 0.00 in0.0 mm 0.00 in0.0 mm 0.17 in4.3 mm
07:35 AM 65.1°F18.4°C 65.1°F18.4°C 99% Calm Calm -- 30.07 in1018.3 mb 0.00 in0.0 mm 0.00 in0.0 mm 0.17 in4.3 mm
07:30 AM 65.1°F18.4°C 65.1°F18.4°C 99% Calm Calm -- 30.07 in1018.3 mb 0.00 in0.0 mm 0.00 in0.0 mm 0.17 in4.3 mm
07:25 AM 65.1°F18.4°C 65.1°F18.4°C 99% Calm Calm -- 30.07 in1018.3 mb 0.00 in0.0 mm 0.00 in0.0 mm 0.17 in4.3 mm
07:20 AM 64.9°F18.3°C 64.9°F18.3°C 99% Calm Calm -- 30.07 in1018.3 mb 0.00 in0.0 mm 0.00 in0.0 mm 0.17 in4.3 mm
07:15 AM 64.9°F18.3°C 64.9°F18.3°C 99% Calm Calm -- 30.07 in1018.3 mb 0.00 in0.0 mm 0.00 in0.0 mm 0.17 in4.3 mm
07:10 AM 64.8°F18.2°C 64.8°F18.2°C 99% Calm Calm -- 30.06 in1017.9 mb 0.00 in0.0 mm 0.00 in0.0 mm 0.17 in4.3 mm
07:05 AM 64.8°F18.2°C 64.8°F18.2°C 99% Calm Calm -- 30.06 in1017.9 mb 0.00 in0.0 mm 0.00 in0.0 mm 0.17 in4.3 mm
07:00 AM 64.6°F18.1°C 64.6°F18.1°C 99% Calm Calm -- 30.06 in1017.9 mb 0.00 in0.0 mm 0.00 in0.0 mm 0.17 in4.3 mm
06:55 AM 64.6°F18.1°C 64.6°F18.1°C 99% Calm Calm -- 30.06 in1017.9 mb 0.00 in0.0 mm 0.00 in0.0 mm 0.17 in4.3 mm
06:50 AM 64.4°F18.0°C 64.4°F18.0°C 99% Calm Calm -- 30.05 in1017.6 mb 0.00 in0.0 mm 0.00 in0.0 mm 0.17 in4.3 mm
06:45 AM 64.4°F18.0°C 64.4°F18.0°C 99% Calm Calm -- 30.04 in1017.3 mb 0.00 in0.0 mm 0.00 in0.0 mm 0.17 in4.3 mm
06:40 AM 64.4°F18.0°C 64.4°F18.0°C 99% Calm Calm -- 30.03 in1016.9 mb 0.00 in0.0 mm 0.00 in0.0 mm 0.17 in4.3 mm
06:35 AM 64.4°F18.0°C 64.4°F18.0°C 99% 3.6 mph E5.8 kmh E 5.8 mph9.3 kmh 30.02 in1016.6 mb 0.00 in0.0 mm 0.00 in0.0 mm 0.17 in4.3 mm
06:30 AM 64.4°F18.0°C 64.4°F18.0°C 99% Calm Calm -- 30.01 in1016.3 mb 0.00 in0.0 mm 0.00 in0.0 mm 0.17 in4.3 mm
06:25 AM 64.4°F18.0°C 64.4°F18.0°C 99% Calm Calm -- 30.01 in1016.3 mb 0.00 in0.0 mm 0.00 in0.0 mm 0.17 in4.3 mm
06:20 AM 64.4°F18.0°C 64.4°F18.0°C 99% Calm Calm -- 30.01 in1016.3 mb 0.00 in0.0 mm 0.00 in0.0 mm 0.17 in4.3 mm
06:15 AM 64.4°F18.0°C 64.4°F18.0°C 99% Calm Calm -- 30.01 in1016.3 mb 0.00 in0.0 mm 0.00 in0.0 mm 0.17 in4.3 mm
06:10 AM 64.4°F18.0°C 64.4°F18.0°C 99% Calm Calm -- 30.00 in1015.9 mb 0.00 in0.0 mm 0.00 in0.0 mm 0.17 in4.3 mm
06:05 AM 64.4°F18.0°C 64.4°F18.0°C 99% 2.9 mph ESE4.7 kmh ESE 5.8 mph9.3 kmh 30.00 in1015.9 mb 0.00 in0.0 mm 0.00 in0.0 mm 0.17 in4.3 mm
06:00 AM 64.4°F18.0°C 64.4°F18.0°C 99% Calm Calm -- 30.00 in1015.9 mb 0.00 in0.0 mm 0.00 in0.0 mm 0.17 in4.3 mm
05:55 AM 64.4°F18.0°C 64.4°F18.0°C 99% Calm Calm -- 30.00 in1015.9 mb 0.00 in0.0 mm 0.00 in0.0 mm 0.17 in4.3 mm
05:50 AM 64.4°F18.0°C 64.4°F18.0°C 99% Calm Calm -- 30.00 in1015.9 mb 0.00 in0.0 mm 0.00 in0.0 mm 0.17 in4.3 mm
05:45 AM 64.4°F18.0°C 64.4°F18.0°C 99% 1.6 mph SE2.6 kmh SE 2.9 mph4.7 kmh 29.99 in1015.6 mb 0.00 in0.0 mm 0.00 in0.0 mm 0.17 in4.3 mm
05:40 AM 64.4°F18.0°C 64.4°F18.0°C 99% 0.7 mph E1.1 kmh E 2.9 mph4.7 kmh 29.99 in1015.6 mb 0.00 in0.0 mm 0.00 in0.0 mm 0.17 in4.3 mm
05:35 AM 64.4°F18.0°C 64.4°F18.0°C 99% 0.9 mph E1.4 kmh E 2.9 mph4.7 kmh 29.99 in1015.6 mb 0.00 in0.0 mm 0.00 in0.0 mm 0.17 in4.3 mm
05:30 AM 64.4°F18.0°C 64.4°F18.0°C 99% 1.6 mph E2.6 kmh E 2.9 mph4.7 kmh 29.99 in1015.6 mb 0.00 in0.0 mm 0.00 in0.0 mm 0.17 in4.3 mm
05:25 AM 64.4°F18.0°C 64.4°F18.0°C 99% 2.7 mph E4.3 kmh E 2.9 mph4.7 kmh 29.99 in1015.6 mb 0.00 in0.0 mm 0.00 in0.0 mm 0.17 in4.3 mm
05:20 AM 64.4°F18.0°C 64.4°F18.0°C 99% 4.0 mph ENE6.4 kmh ENE 5.8 mph9.3 kmh 29.99 in1015.6 mb 0.00 in0.0 mm 0.00 in0.0 mm 0.17 in4.3 mm
05:15 AM 64.4°F18.0°C 64.4°F18.0°C 99% 0.7 mph ENE1.1 kmh ENE 2.9 mph4.7 kmh 29.99 in1015.6 mb 0.00 in0.0 mm 0.00 in0.0 mm 0.17 in4.3 mm
05:10 AM 64.4°F18.0°C 64.4°F18.0°C 99% Calm Calm -- 29.99 in1015.6 mb 0.00 in0.0 mm 0.00 in0.0 mm 0.17 in4.3 mm
05:05 AM 64.4°F18.0°C 64.4°F18.0°C 99% 1.6 mph E2.6 kmh E 2.9 mph4.7 kmh 29.99 in1015.6 mb 0.00 in0.0 mm 0.00 in0.0 mm 0.17 in4.3 mm
05:00 AM 64.6°F18.1°C 64.6°F18.1°C 99% Calm Calm -- 29.99 in1015.6 mb 0.00 in0.0 mm 0.00 in0.0 mm 0.17 in4.3 mm
04:55 AM 64.4°F18.0°C 64.4°F18.0°C 99% Calm Calm -- 29.99 in1015.6 mb 0.00 in0.0 mm 0.00 in0.0 mm 0.17 in4.3 mm
04:50 AM 64.4°F18.0°C 64.4°F18.0°C 99% 0.9 mph NE1.4 kmh NE 2.9 mph4.7 kmh 29.99 in1015.6 mb 0.00 in0.0 mm 0.00 in0.0 mm 0.17 in4.3 mm
04:45 AM 64.4°F18.0°C 64.4°F18.0°C 99% Calm Calm -- 29.98 in1015.2 mb 0.00 in0.0 mm 0.00 in0.0 mm 0.17 in4.3 mm
04:40 AM 64.4°F18.0°C 64.4°F18.0°C 99% Calm Calm -- 29.98 in1015.2 mb 0.00 in0.0 mm 0.00 in0.0 mm 0.17 in4.3 mm
04:35 AM 64.4°F18.0°C 64.4°F18.0°C 99% 1.8 mph NNE2.9 kmh NNE 2.9 mph4.7 kmh 29.98 in1015.2 mb 0.00 in0.0 mm 0.00 in0.0 mm 0.17 in4.3 mm
04:30 AM 64.4°F18.0°C 64.4°F18.0°C 99% Calm Calm -- 29.98 in1015.2 mb 0.00 in0.0 mm 0.00 in0.0 mm 0.17 in4.3 mm
04:25 AM 64.4°F18.0°C 64.4°F18.0°C 99% 0.2 mph ESE0.3 kmh ESE 2.9 mph4.7 kmh 29.97 in1014.9 mb 0.00 in0.0 mm 0.00 in0.0 mm 0.17 in4.3 mm
04:20 AM 64.4°F18.0°C 64.4°F18.0°C 99% Calm Calm -- 29.97 in1014.9 mb 0.00 in0.0 mm 0.00 in0.0 mm 0.17 in4.3 mm
04:15 AM 64.4°F18.0°C 64.4°F18.0°C 99% Calm Calm -- 29.97 in1014.9 mb 0.00 in0.0 mm 0.00 in0.0 mm 0.17 in4.3 mm
04:10 AM 64.4°F18.0°C 64.4°F18.0°C 99% Calm Calm -- 29.97 in1014.9 mb 0.00 in0.0 mm 0.00 in0.0 mm 0.17 in4.3 mm
04:05 AM 64.4°F18.0°C 64.4°F18.0°C 99% Calm Calm -- 29.97 in1014.9 mb 0.00 in0.0 mm 0.00 in0.0 mm 0.17 in4.3 mm
04:00 AM 64.4°F18.0°C 64.4°F18.0°C 99% Calm Calm -- 29.98 in1015.2 mb 0.00 in0.0 mm 0.00 in0.0 mm 0.17 in4.3 mm
03:55 AM 64.4°F18.0°C 64.4°F18.0°C 99% Calm Calm -- 29.98 in1015.2 mb 0.00 in0.0 mm 0.00 in0.0 mm 0.17 in4.3 mm
03:50 AM 64.4°F18.0°C 64.4°F18.0°C 99% Calm Calm -- 29.98 in1015.2 mb 0.00 in0.0 mm 0.00 in0.0 mm 0.17 in4.3 mm
03:45 AM 64.4°F18.0°C 64.4°F18.0°C 99% Calm Calm -- 29.98 in1015.2 mb 0.00 in0.0 mm 0.00 in0.0 mm 0.17 in4.3 mm
03:40 AM 64.4°F18.0°C 64.4°F18.0°C 99% Calm Calm -- 29.99 in1015.6 mb 0.00 in0.0 mm 0.00 in0.0 mm 0.17 in4.3 mm
03:35 AM 64.4°F18.0°C 64.4°F18.0°C 99% Calm Calm -- 29.99 in1015.6 mb 0.00 in0.0 mm 0.00 in0.0 mm 0.17 in4.3 mm
03:30 AM 64.4°F18.0°C 64.4°F18.0°C 99% Calm Calm -- 29.99 in1015.6 mb 0.00 in0.0 mm 0.00 in0.0 mm 0.17 in4.3 mm
03:25 AM 64.4°F18.0°C 64.4°F18.0°C 99% Calm Calm -- 29.99 in1015.6 mb 0.00 in0.0 mm 0.00 in0.0 mm 0.17 in4.3 mm
03:20 AM 64.4°F18.0°C 64.4°F18.0°C 99% Calm Calm -- 29.99 in1015.6 mb 0.00 in0.0 mm 0.00 in0.0 mm 0.17 in4.3 mm
03:15 AM 64.4°F18.0°C 64.4°F18.0°C 99% Calm Calm -- 29.99 in1015.6 mb 0.00 in0.0 mm 0.00 in0.0 mm 0.17 in4.3 mm
03:10 AM 64.4°F18.0°C 64.4°F18.0°C 99% Calm Calm -- 29.99 in1015.6 mb 0.00 in0.0 mm 0.00 in0.0 mm 0.17 in4.3 mm
03:05 AM 64.4°F18.0°C 64.4°F18.0°C 99% Calm Calm -- 29.99 in1015.6 mb 0.00 in0.0 mm 0.00 in0.0 mm 0.17 in4.3 mm
03:00 AM 64.4°F18.0°C 64.4°F18.0°C 99% Calm Calm -- 29.99 in1015.6 mb 0.00 in0.0 mm 0.00 in0.0 mm 0.17 in4.3 mm
02:55 AM 64.4°F18.0°C 64.4°F18.0°C 99% Calm Calm -- 29.99 in1015.6 mb 0.00 in0.0 mm 0.00 in0.0 mm 0.17 in4.3 mm
02:50 AM 64.4°F18.0°C 64.4°F18.0°C 99% Calm Calm -- 29.98 in1015.2 mb 0.00 in0.0 mm 0.00 in0.0 mm 0.17 in4.3 mm
02:45 AM 64.4°F18.0°C 64.4°F18.0°C 99% 2.0 mph ESE3.2 kmh ESE 2.9 mph4.7 kmh 29.98 in1015.2 mb 0.00 in0.0 mm 0.00 in0.0 mm 0.17 in4.3 mm
02:40 AM 64.4°F18.0°C 64.4°F18.0°C 99% Calm Calm -- 29.98 in1015.2 mb 0.00 in0.0 mm 0.00 in0.0 mm 0.17 in4.3 mm
02:35 AM 64.2°F17.9°C 64.2°F17.9°C 99% Calm Calm -- 29.97 in1014.9 mb 0.00 in0.0 mm 0.00 in0.0 mm 0.17 in4.3 mm
02:30 AM 64.2°F17.9°C 64.2°F17.9°C 99% Calm Calm -- 29.96 in1014.6 mb 0.00 in0.0 mm 0.00 in0.0 mm 0.17 in4.3 mm
02:25 AM 64.0°F17.8°C 64.0°F17.8°C 99% Calm Calm -- 29.95 in1014.2 mb 0.00 in0.0 mm 0.00 in0.0 mm 0.17 in4.3 mm
02:20 AM 64.0°F17.8°C 64.0°F17.8°C 99% 0.7 mph E1.1 kmh E 2.9 mph4.7 kmh 29.95 in1014.2 mb 0.00 in0.0 mm 0.00 in0.0 mm 0.17 in4.3 mm
02:15 AM 64.0°F17.8°C 64.0°F17.8°C 99% 2.9 mph NE4.7 kmh NE 5.8 mph9.3 kmh 29.95 in1014.2 mb 0.00 in0.0 mm 0.00 in0.0 mm 0.17 in4.3 mm
02:10 AM 64.0°F17.8°C 64.0°F17.8°C 99% Calm Calm -- 29.96 in1014.6 mb 0.00 in0.0 mm 0.00 in0.0 mm 0.17 in4.3 mm
02:05 AM 64.0°F17.8°C 64.0°F17.8°C 99% Calm Calm -- 29.96 in1014.6 mb 0.00 in0.0 mm 0.00 in0.0 mm 0.17 in4.3 mm
02:00 AM 64.0°F17.8°C 64.0°F17.8°C 99% 0.7 mph ESE1.1 kmh ESE 2.9 mph4.7 kmh 29.97 in1014.9 mb 0.00 in0.0 mm 0.00 in0.0 mm 0.17 in4.3 mm
01:55 AM 64.0°F17.8°C 64.0°F17.8°C 99% Calm Calm -- 29.97 in1014.9 mb 0.00 in0.0 mm 0.00 in0.0 mm 0.17 in4.3 mm
01:50 AM 64.0°F17.8°C 64.0°F17.8°C 99% 1.6 mph ESE2.6 kmh ESE 2.9 mph4.7 kmh 29.98 in1015.2 mb 0.00 in0.0 mm 0.00 in0.0 mm 0.17 in4.3 mm
01:45 AM 64.0°F17.8°C 64.0°F17.8°C 99% Calm Calm -- 29.99 in1015.6 mb 0.00 in0.0 mm 0.00 in0.0 mm 0.17 in4.3 mm
01:40 AM 64.2°F17.9°C 64.2°F17.9°C 99% Calm Calm -- 30.00 in1015.9 mb 0.00 in0.0 mm 0.00 in0.0 mm 0.17 in4.3 mm
01:35 AM 64.2°F17.9°C 64.2°F17.9°C 99% Calm Calm -- 30.02 in1016.6 mb 0.00 in0.0 mm 0.00 in0.0 mm 0.17 in4.3 mm
01:30 AM 64.2°F17.9°C 64.2°F17.9°C 99% Calm Calm -- 30.03 in1016.9 mb 0.00 in0.0 mm 0.00 in0.0 mm 0.17 in4.3 mm
01:25 AM 64.4°F18.0°C 64.4°F18.0°C 99% Calm Calm -- 30.03 in1016.9 mb 0.00 in0.0 mm 0.00 in0.0 mm 0.17 in4.3 mm
01:20 AM 64.4°F18.0°C 64.4°F18.0°C 99% Calm Calm -- 30.04 in1017.3 mb 0.00 in0.0 mm 0.00 in0.0 mm 0.17 in4.3 mm
01:15 AM 64.4°F18.0°C 64.4°F18.0°C 99% 0.7 mph SW1.1 kmh SW 2.9 mph4.7 kmh 30.04 in1017.3 mb 0.00 in0.0 mm 0.00 in0.0 mm 0.17 in4.3 mm
01:10 AM 64.4°F18.0°C 64.4°F18.0°C 99% Calm Calm -- 30.04 in1017.3 mb 0.00 in0.0 mm 0.00 in0.0 mm 0.17 in4.3 mm
01:05 AM 64.4°F18.0°C 64.4°F18.0°C 99% Calm Calm -- 30.04 in1017.3 mb 0.00 in0.0 mm 0.00 in0.0 mm 0.17 in4.3 mm
01:00 AM 64.4°F18.0°C 63.8°F17.7°C 98% 3.6 mph SW5.8 kmh SW 5.8 mph9.3 kmh 30.04 in1017.3 mb 0.00 in0.0 mm 0.00 in0.0 mm 0.17 in4.3 mm
12:55 AM 64.2°F17.9°C 64.0°F17.8°C 98% Calm Calm -- 30.03 in1016.9 mb 0.00 in0.0 mm 0.00 in0.0 mm 0.17 in4.3 mm
12:50 AM 64.4°F18.0°C 64.4°F18.0°C 98% Calm Calm -- 30.03 in1016.9 mb 0.00 in0.0 mm 0.00 in0.0 mm 0.17 in4.3 mm
12:45 AM 65.1°F18.4°C 65.0°F18.3°C 97% Calm Calm -- 30.03 in1016.9 mb 0.00 in0.0 mm 0.00 in0.0 mm 0.17 in4.3 mm
12:40 AM 65.8°F18.8°C 65.8°F18.8°C 97% Calm Calm -- 30.03 in1016.9 mb 0.00 in0.0 mm 0.00 in0.0 mm 0.17 in4.3 mm
12:35 AM 66.7°F19.3°C 66.6°F19.2°C 96% 3.4 mph SW5.5 kmh SW 5.8 mph9.3 kmh 30.03 in1016.9 mb 0.00 in0.0 mm 0.00 in0.0 mm 0.17 in4.3 mm
12:30 AM 67.8°F19.9°C 67.4°F19.7°C 94% Calm Calm -- 30.03 in1016.9 mb 0.21 in5.3 mm 0.00 in0.0 mm 0.17 in4.3 mm
12:25 AM 69.1°F20.6°C 67.5°F19.7°C 90% 1.6 mph WSW2.6 kmh WSW 2.9 mph4.7 kmh 30.03 in1016.9 mb 0.99 in25.1 mm 4.20 in106.7 mm 0.17 in4.3 mm
12:20 AM 70.7°F21.5°C 67.5°F19.7°C 86% 2.9 mph SW4.7 kmh SW 5.8 mph9.3 kmh 30.03 in1016.9 mb 0.64 in16.3 mm 7.68 in195.1 mm 0.11 in2.8 mm
12:15 AM 72.1°F22.3°C 68.1°F20.1°C 84% Calm Calm -- 30.02 in1016.6 mb 0.00 in0.0 mm 0.00 in0.0 mm 0.00 in0.0 mm
12:10 AM 73.2°F22.9°C 68.4°F20.2°C 82% 1.8 mph W2.9 kmh W 2.9 mph4.7 kmh 30.02 in1016.6 mb 0.00 in0.0 mm 0.00 in0.0 mm 0.00 in0.0 mm
12:05 AM 74.3°F23.5°C 68.2°F20.1°C 79% 1.8 mph SW2.9 kmh SW 2.9 mph4.7 kmh 30.01 in1016.3 mb 0.00 in0.0 mm 0.00 in0.0 mm 0.00 in0.0 mm
12:00 AM 75.2°F24.0°C 68.4°F20.2°C 78% 8.3 mph SW13.4 kmh SW 15.0 mph24.1 kmh 30.01 in1016.3 mb 0.00 in0.0 mm 0.00 in0.0 mm 0.00 in0.0 mm